Lincoln, NM (88338)

6:55 AM MDT on September 01, 2014 (GMT -0600)
Sierra Blanca Regional | Change Station
CLOSE
Current Station
Airport
Location: Ruidoso,
Elevation: 6811 ft
Nearby Weather Stations

Elev 6811 ft 33.46 °N, 105.53 °W | Updated 20 minutes ago

Clear
Clear
64 °F
Feels Like 64 °F
N
10
Wind Variable Wind from West

Today
High -- | Low -- °F
--% Chance of Precip.
Yesterday
High -- | Low -- °F
Precip. -- in
6:36 AM 7:27 PM
Waxing Crescent, 40% visible
Pressure 30.23 in
Visibility 10.0 miles
Clouds Clear
Dew Point 36 °F
Humidity 34%
Rainfall 0.00 in
Snow Depth 2 in
UV 0 out of 12
Pollen 10.10 out of 12
Air Quality Not available.
Flu Activity Not available.
METAR KSRR 011235Z AUTO 28009KT 10SM CLR 18/02 A3023 RMK AO2

More Conditions Fewer Conditions

Pressure 30.23 in
Visibility 10.0 miles
Clouds Clear
Dew Point 36 °F
Humidity 34%
Rainfall 0.00 in
Snow Depth 2 in
UV 0 out of 12
Pollen 10.10 out of 12
Air Quality Not available.
Flu Activity Not available.
METAR KSRR 011235Z AUTO 28009KT 10SM CLR 18/02 A3023 RMK AO2

More Conditions Fewer Conditions

10-Day Weather Forecast

Almanac

Astronomy

Sep. 01, 2014 Rise Set
Actual Time 6:36 AM MDT 7:27 PM MDT
Civil Twilight 6:10 AM MDT 7:52 PM MDT
Nautical Twilight 5:40 AM MDT 8:22 PM MDT
Astronomical Twilight 5:10 AM MDT 8:53 PM MDT
Moon 1:04 PM MDT 11:50 PM MDT
Length of Visible Light 13h 41m
Length of Day
12h 51m
Tomorrow will be 1m 59s shorter.
Waxing Crescent, 40% of the Moon is Illuminated
Today
Waxing Crescent
Sep 2
First Quarter
Sep 8
Full
Sep 15
Last Quarter
Sep 24
New

Today's Extremes

State Highs State Lows

Community

WunderPhotos

Upload Photos

1,749,199 photos uploaded!

Nearby

Snow Depth

Station Depth Elevation
Sierra Blanca 2 in 10280 ft
McKnight Cabin 0 in 9240 ft
Wesner Springs 2 in 11120 ft
Quemazon 1 in 9500 ft
Silver Creek Divide 18 in 9000 ft

Earthquake Activity

City Distance Mag. Time & Date
No recent earthquake activity has been reported nearby.
Minimum magnitude displayed is 2.5.

Coastal Water Temperatures

Place Temperature
No Stations Reporting

Nearby Weather Stations